^^
B2 Weather Station Historical Data
Daily Summary for April 8, 2018 Units:  English    Metric   Both
Daily Weekly Monthly Yearly Custom
  High: Low: Average:
Temperature: 42.7 °F 19.4 °F 32.7 °F
Dew Point: 29.4 °F 13.0 °F 19.2 °F
Humidity: 91% 39% 59%
Wind Speed: 10.4mph 0.0mph 1.5mph
Wind Gust: 10.4mph - -
Wind- - South
Pressure: 30.17 in 30.02 in -
Precipitation: 0.00 in    
Historical Graphs
 
 
Tabular Data for April 8, 2018
Time Temperature Dew Point Pressure Wind Wind Speed Wind Gust Humidity Rainfall Rate (Hourly) solar
00:00 29.3 °F 15.5 °F 30.12 in WNW 3.5 mph   56% 0.00 in 0.0 W/m2
00:05 29.3 °F 15.5 °F 30.12 in WNW 1.2 mph 1.2 mph 56% 0.00 in 0.0 W/m2
00:10 29.2 °F 15.4 °F 30.12 in WNW 3.5 mph 3.5 mph 56% 0.00 in 0.0 W/m2
00:15 29.2 °F 15.0 °F 30.12 in WNW 2.3 mph 2.3 mph 55% 0.00 in 0.0 W/m2
00:20 29.1 °F 14.9 °F 30.12 in Calm   0.3 mph 55% 0.00 in 0.0 W/m2
00:25 28.9 °F 15.2 °F 30.11 in WNW 3.5 mph 3.5 mph 56% 0.00 in 0.0 W/m2
00:30 28.7 °F 15.0 °F 30.11 in WNW 1.2 mph 1.2 mph 56% 0.00 in 0.0 W/m2
00:35 28.6 °F 14.9 °F 30.11 in NW 3.5 mph 3.5 mph 56% 0.00 in 0.0 W/m2
00:40 28.5 °F 14.8 °F 30.11 in WNW 1.2 mph 1.2 mph 56% 0.00 in 0.0 W/m2
00:45 28.3 °F 14.6 °F 30.11 in Calm     56% 0.00 in 0.0 W/m2
00:50 27.9 °F 14.6 °F 30.11 in WNW 2.3 mph   57% 0.00 in 0.0 W/m2
00:55 27.7 °F 14.4 °F 30.11 in WNW 1.2 mph 1.2 mph 57% 0.00 in 0.0 W/m2
01:00 27.5 °F 14.6 °F 30.11 in WNW 2.3 mph   58% 0.00 in 0.0 W/m2
01:05 27.3 °F 14.5 °F 30.11 in WNW 2.3 mph 2.3 mph 58% 0.00 in 0.0 W/m2
01:10 27.1 °F 14.7 °F 30.11 in WNW 1.2 mph 1.2 mph 59% 0.00 in 0.0 W/m2
01:15 26.9 °F 14.5 °F 30.11 in Calm     59% 0.00 in 0.0 W/m2
01:20 26.7 °F 14.3 °F 30.11 in Calm     59% 0.00 in 0.0 W/m2
01:25 26.5 °F 14.5 °F 30.11 in Calm     60% 0.00 in 0.0 W/m2
01:30 26.2 °F 14.2 °F 30.11 in Calm   0.6 mph 60% 0.00 in 0.0 W/m2
01:35 26.0 °F 14.0 °F 30.11 in WNW 1.2 mph 1.2 mph 60% 0.00 in 0.0 W/m2
01:40 25.8 °F 14.2 °F 30.11 in Calm     61% 0.00 in 0.0 W/m2
01:45 25.7 °F 14.1 °F 30.11 in Calm   0.2 mph 61% 0.00 in 0.0 W/m2
01:50 25.6 °F 14.0 °F 30.10 in Calm     61% 0.00 in 0.0 W/m2
01:55 25.4 °F 13.8 °F 30.10 in Calm     61% 0.00 in 0.0 W/m2
02:00 25.3 °F 14.1 °F 30.10 in WNW 1.2 mph   62% 0.00 in 0.0 W/m2
02:05 25.1 °F 13.9 °F 30.10 in WNW 3.5 mph   62% 0.00 in 0.0 W/m2
02:10 24.8 °F 14.0 °F 30.10 in Calm     63% 0.00 in 0.0 W/m2
02:15 24.7 °F 13.9 °F 30.10 in Calm     63% 0.00 in 0.0 W/m2
02:20 24.5 °F 13.7 °F 30.10 in WNW 1.0 mph 1.0 mph 63% 0.00 in 0.0 W/m2
02:25 24.4 °F 14.0 °F 30.11 in NW 3.0 mph 3.0 mph 64% 0.00 in 0.0 W/m2
02:30 24.3 °F 13.9 °F 30.11 in North 3.5 mph 3.5 mph 64% 0.00 in 0.0 W/m2
02:35 24.4 °F 14.0 °F 30.10 in NW 2.3 mph 2.3 mph 64% 0.00 in 0.0 W/m2
02:40 24.3 °F 14.2 °F 30.10 in NW 1.2 mph   65% 0.00 in 0.0 W/m2
02:45 24.0 °F 13.9 °F 30.10 in NW 2.3 mph   65% 0.00 in 0.0 W/m2
02:50 23.7 °F 14.0 °F 30.10 in Calm     66% 0.00 in 0.0 W/m2
02:55 23.4 °F 13.7 °F 30.10 in Calm     66% 0.00 in 0.0 W/m2
03:00 23.1 °F 13.8 °F 30.10 in NW 1.2 mph   67% 0.00 in 0.0 W/m2
03:06 22.9 °F 13.6 °F 30.10 in Calm     67% 0.00 in 0.0 W/m2
03:11 22.7 °F 13.7 °F 30.10 in Calm     68% 0.00 in 0.0 W/m2
03:16 22.4 °F 13.8 °F 30.10 in Calm     69% 0.00 in 0.0 W/m2
03:21 22.2 °F 13.9 °F 30.11 in Calm     70% 0.00 in 0.0 W/m2
03:26 22.1 °F 13.8 °F 30.11 in Calm     70% 0.00 in 0.0 W/m2
03:31 22.0 °F 13.7 °F 30.11 in Calm     70% 0.00 in 0.0 W/m2
03:36 22.0 °F 13.7 °F 30.11 in Calm     70% 0.00 in 0.0 W/m2
03:41 21.8 °F 13.8 °F 30.12 in Calm     71% 0.00 in 0.0 W/m2
03:46 21.6 °F 14.0 °F 30.12 in Calm     72% 0.00 in 0.0 W/m2
03:51 21.6 °F 14.0 °F 30.12 in Calm     72% 0.00 in 0.0 W/m2
03:56 21.6 °F 14.0 °F 30.12 in Calm     72% 0.00 in 0.0 W/m2
04:01 21.6 °F 14.0 °F 30.12 in Calm     72% 0.00 in 0.0 W/m2
04:06 21.5 °F 14.2 °F 30.12 in Calm     73% 0.00 in 0.0 W/m2
04:11 21.4 °F 14.1 °F 30.12 in Calm     73% 0.00 in 0.0 W/m2
04:16 21.4 °F 14.1 °F 30.12 in Calm     73% 0.00 in 0.0 W/m2
04:21 21.3 °F 14.0 °F 30.12 in Calm     73% 0.00 in 0.0 W/m2
04:26 21.0 °F 14.0 °F 30.12 in Calm     74% 0.00 in 0.0 W/m2
04:31 20.7 °F 13.7 °F 30.12 in Calm     74% 0.00 in 0.0 W/m2
04:36 20.6 °F 14.2 °F 30.12 in Calm     76% 0.00 in 0.0 W/m2
04:41 20.6 °F 13.6 °F 30.12 in Calm     74% 0.00 in 0.0 W/m2
04:46 20.0 °F 13.0 °F 30.12 in Calm     74% 0.00 in 0.0 W/m2
04:51 19.7 °F 13.1 °F 30.12 in Calm     75% 0.00 in 0.0 W/m2
04:56 19.4 °F 13.1 °F 30.12 in Calm     76% 0.00 in 0.0 W/m2
05:01 19.9 °F 14.1 °F 30.12 in Calm     78% 0.00 in 0.0 W/m2
05:06 20.1 °F 14.3 °F 30.12 in Calm     78% 0.00 in 0.0 W/m2
05:11 20.1 °F 14.3 °F 30.12 in Calm     78% 0.00 in 0.0 W/m2
05:16 20.2 °F 14.4 °F 30.12 in Calm     78% 0.00 in 0.0 W/m2
05:21 19.9 °F 13.9 °F 30.12 in Calm     77% 0.00 in 0.0 W/m2
05:26 19.7 °F 14.0 °F 30.13 in Calm     78% 0.00 in 0.0 W/m2
05:31 19.5 °F 13.8 °F 30.12 in Calm     78% 0.00 in 0.0 W/m2
05:36 19.4 °F 13.9 °F 30.13 in Calm     79% 0.00 in 0.0 W/m2
05:41 19.4 °F 13.9 °F 30.13 in Calm     79% 0.00 in 0.0 W/m2
05:46 19.5 °F 14.3 °F 30.13 in Calm     80% 0.00 in 0.0 W/m2
05:51 19.7 °F 14.5 °F 30.14 in Calm     80% 0.00 in 0.0 W/m2
05:56 19.7 °F 14.2 °F 30.14 in Calm     79% 0.00 in 0.0 W/m2
06:01 19.8 °F 14.6 °F 30.14 in Calm     80% 0.00 in 0.0 W/m2
06:06 19.8 °F 14.3 °F 30.14 in Calm     79% 0.00 in 0.0 W/m2
06:11 19.7 °F 14.2 °F 30.14 in Calm     79% 0.00 in 0.0 W/m2
06:16 19.7 °F 14.2 °F 30.14 in Calm     79% 0.00 in 0.0 W/m2
06:21 19.7 °F 14.2 °F 30.14 in Calm     79% 0.00 in 0.0 W/m2
06:26 19.8 °F 14.3 °F 30.14 in Calm     79% 0.00 in 7.0 W/m2
06:36 19.9 °F 14.4 °F 30.14 in Calm     79% 0.00 in 14.0 W/m2
06:41 20.0 °F 14.5 °F 30.14 in Calm     79% 0.00 in 18.0 W/m2
06:46 20.1 °F 14.6 °F 30.15 in Calm     79% 0.00 in 23.0 W/m2
06:51 20.3 °F 14.8 °F 30.15 in Calm     79% 0.00 in 33.0 W/m2
06:56 20.7 °F 15.5 °F 30.15 in Calm     80% 0.00 in 47.0 W/m2
07:01 21.1 °F 15.9 °F 30.15 in Calm     80% 0.00 in 62.0 W/m2
07:06 21.6 °F 16.1 °F 30.15 in Calm     79% 0.00 in 77.0 W/m2
07:11 22.0 °F 16.8 °F 30.15 in Calm     80% 0.00 in 88.0 W/m2
07:16 22.3 °F 17.1 °F 30.15 in Calm     80% 0.00 in 105.0 W/m2
07:21 22.7 °F 17.5 °F 30.15 in Calm     80% 0.00 in 121.0 W/m2
07:26 23.3 °F 18.0 °F 30.15 in Calm     80% 0.00 in 139.0 W/m2
07:31 23.7 °F 18.1 °F 30.15 in Calm     79% 0.00 in 153.0 W/m2
07:36 24.4 °F 19.1 °F 30.14 in Calm     80% 0.00 in 169.0 W/m2
07:41 25.3 °F 20.0 °F 30.15 in Calm     80% 0.00 in 183.0 W/m2
07:46 26.0 °F 19.8 °F 30.15 in Calm     77% 0.00 in 204.0 W/m2
07:51 26.6 °F 20.1 °F 30.15 in Calm     76% 0.00 in 221.0 W/m2
07:56 27.0 °F 19.5 °F 30.15 in Calm     73% 0.00 in 239.0 W/m2
08:01 27.5 °F 20.3 °F 30.16 in Calm     74% 0.00 in 258.0 W/m2
08:06 28.5 °F 20.6 °F 30.16 in Calm     72% 0.00 in 276.0 W/m2
08:11 29.3 °F 21.1 °F 30.16 in Calm     71% 0.00 in 294.0 W/m2
08:16 29.9 °F 20.6 °F 30.17 in Calm     68% 0.00 in 309.0 W/m2
08:21 30.2 °F 20.6 °F 30.16 in Calm     67% 0.00 in 329.0 W/m2
08:26 31.0 °F 21.3 °F 30.16 in Calm     67% 0.00 in 345.0 W/m2
08:32 31.5 °F 21.1 °F 30.16 in Calm     65% 0.00 in 359.0 W/m2
08:37 31.9 °F 20.7 °F 30.16 in Calm     63% 0.00 in 380.0 W/m2
08:42 32.1 °F 20.5 °F 30.16 in Calm     62% 0.00 in 327.0 W/m2
08:47 32.3 °F 20.3 °F 30.16 in Calm     61% 0.00 in 413.0 W/m2
08:52 32.5 °F 20.1 °F 30.16 in Calm     60% 0.00 in 427.0 W/m2
08:57 32.6 °F 20.6 °F 30.16 in Calm     61% 0.00 in 454.0 W/m2
09:02 33.1 °F 21.1 °F 30.16 in NNE 2.3 mph 2.3 mph 61% 0.00 in 468.0 W/m2
09:07 33.3 °F 20.9 °F 30.16 in Calm     60% 0.00 in 485.0 W/m2
09:12 33.5 °F 21.1 °F 30.16 in Calm     60% 0.00 in 478.0 W/m2
09:17 33.8 °F 21.8 °F 30.16 in Calm     61% 0.00 in 438.0 W/m2
09:22 34.4 °F 21.9 °F 30.16 in Calm     60% 0.00 in 531.0 W/m2
09:27 35.0 °F 21.7 °F 30.16 in Calm     58% 0.00 in 517.0 W/m2
09:32 35.1 °F 20.5 °F 30.16 in Calm     55% 0.00 in 563.0 W/m2
09:37 35.0 °F 21.3 °F 30.16 in Calm     57% 0.00 in 577.0 W/m2
09:42 35.6 °F 21.9 °F 30.16 in Calm     57% 0.00 in 587.0 W/m2
09:47 35.9 °F 22.5 °F 30.16 in Calm     58% 0.00 in 587.0 W/m2
09:52 35.8 °F 21.2 °F 30.15 in Calm     55% 0.00 in 613.0 W/m2
09:57 36.0 °F 22.6 °F 30.15 in Calm     58% 0.00 in 629.0 W/m2
10:02 36.2 °F 20.2 °F 30.15 in Calm     52% 0.00 in 645.0 W/m2
10:07 36.1 °F 20.6 °F 30.15 in SSW 2.3 mph 2.3 mph 53% 0.00 in 659.0 W/m2
10:12 36.0 °F 19.6 °F 30.15 in SE 3.5 mph 3.5 mph 51% 0.00 in 680.0 W/m2
10:17 35.8 °F 20.3 °F 30.15 in SSW 2.3 mph 2.3 mph 53% 0.00 in 668.0 W/m2
10:22 35.9 °F 19.5 °F 30.15 in Calm     51% 0.00 in 671.0 W/m2
10:27 36.2 °F 18.9 °F 30.15 in SSE 4.6 mph 4.6 mph 49% 0.00 in 703.0 W/m2
10:32 36.6 °F 17.7 °F 30.15 in SE 2.3 mph   46% 0.00 in 728.0 W/m2
10:37 36.7 °F 18.3 °F 30.14 in Calm     47% 0.00 in 698.0 W/m2
10:42 36.8 °F 18.9 °F 30.14 in SSE 3.5 mph 3.5 mph 48% 0.00 in 744.0 W/m2
10:47 36.8 °F 19.9 °F 30.14 in SW 2.3 mph 2.3 mph 50% 0.00 in 749.0 W/m2
10:52 37.0 °F 20.1 °F 30.13 in WNW 3.5 mph 3.5 mph 50% 0.00 in 751.0 W/m2
10:57 37.0 °F 18.6 °F 30.14 in ESE 3.5 mph 3.5 mph 47% 0.00 in 768.0 W/m2
11:02 37.3 °F 19.4 °F 30.14 in ESE 8.1 mph 8.1 mph 48% 0.00 in 775.0 W/m2
11:07 37.3 °F 19.4 °F 30.14 in SSE 4.0 mph 4.0 mph 48% 0.00 in 782.0 W/m2
11:12 37.6 °F 20.1 °F 30.14 in ENE 8.0 mph 8.0 mph 49% 0.00 in 795.0 W/m2
11:17 38.0 °F 20.0 °F 30.14 in ESE 3.5 mph 3.5 mph 48% 0.00 in 805.0 W/m2
11:22 37.8 °F 18.3 °F 30.14 in ENE 3.5 mph 3.5 mph 45% 0.00 in 782.0 W/m2
11:27 37.6 °F 19.2 °F 30.14 in NNE 4.6 mph 4.6 mph 47% 0.00 in 724.0 W/m2
11:32 37.8 °F 18.8 °F 30.13 in East 2.3 mph 2.3 mph 46% 0.00 in 749.0 W/m2
11:37 38.3 °F 18.8 °F 30.13 in ESE 3.5 mph 3.5 mph 45% 0.00 in 752.0 W/m2
11:42 38.3 °F 17.2 °F 30.13 in Calm     42% 0.00 in 640.0 W/m2
11:47 38.1 °F 19.1 °F 30.13 in Calm     46% 0.00 in 606.0 W/m2
11:52 38.0 °F 16.9 °F 30.13 in ESE 2.3 mph 2.3 mph 42% 0.00 in 524.0 W/m2
11:57 37.9 °F 17.4 °F 30.12 in ESE 3.0 mph 3.0 mph 43% 0.00 in 520.0 W/m2
12:02 37.8 °F 17.3 °F 30.12 in ESE 9.2 mph 9.2 mph 43% 0.00 in 540.0 W/m2
12:07 37.7 °F 16.1 °F 30.12 in Calm     41% 0.00 in 497.0 W/m2
12:12 37.7 °F 16.6 °F 30.12 in Calm     42% 0.00 in 476.0 W/m2
12:17 37.6 °F 16.5 °F 30.11 in ENE 3.5 mph 3.5 mph 42% 0.00 in 469.0 W/m2
12:22 37.5 °F 17.0 °F 30.11 in Calm     43% 0.00 in 462.0 W/m2
12:27 37.5 °F 18.6 °F 30.11 in SE 2.0 mph 2.4 mph 46% 0.00 in 468.0 W/m2
12:32 37.9 °F 17.4 °F 30.10 in ENE 2.3 mph   43% 0.00 in 436.0 W/m2
12:37 38.0 °F 16.9 °F 30.10 in SE 3.5 mph 3.5 mph 42% 0.00 in 438.0 W/m2
12:42 38.0 °F 16.4 °F 30.10 in Calm     41% 0.00 in 446.0 W/m2
12:47 38.1 °F 18.1 °F 30.10 in Calm     44% 0.00 in 415.0 W/m2
12:52 38.5 °F 17.9 °F 30.10 in East 2.3 mph   43% 0.00 in 392.0 W/m2
12:57 38.4 °F 17.3 °F 30.10 in ENE 1.0 mph 1.0 mph 42% 0.00 in 397.0 W/m2
13:02 38.3 °F 18.3 °F 30.09 in Calm     44% 0.00 in 418.0 W/m2
13:07 38.4 °F 17.8 °F 30.09 in South 3.5 mph   43% 0.00 in 441.0 W/m2
13:12 38.8 °F 18.2 °F 30.09 in Calm     43% 0.00 in 448.0 W/m2
13:17 39.2 °F 18.0 °F 30.09 in East 4.6 mph   42% 0.00 in 455.0 W/m2
13:22 39.2 °F 18.0 °F 30.09 in ESE 4.6 mph 4.6 mph 42% 0.00 in 390.0 W/m2
13:27 39.3 °F 18.6 °F 30.09 in ESE 3.5 mph 3.5 mph 43% 0.00 in 376.0 W/m2
13:32 39.1 °F 18.5 °F 30.09 in SE 3.5 mph 3.5 mph 43% 0.00 in 485.0 W/m2
13:37 39.0 °F 18.4 °F 30.09 in NE 5.8 mph 5.8 mph 43% 0.00 in 640.0 W/m2
13:42 39.3 °F 19.7 °F 30.08 in SSE 3.5 mph 3.5 mph 45% 0.00 in 446.0 W/m2
13:47 39.8 °F 20.7 °F 30.08 in SSE 5.0 mph 5.0 mph 46% 0.00 in 633.0 W/m2
13:52 40.2 °F 21.0 °F 30.09 in Calm     46% 0.00 in 837.0 W/m2
13:57 40.6 °F 20.4 °F 30.08 in SE 3.5 mph 3.5 mph 44% 0.00 in 756.0 W/m2
14:02 40.7 °F 21.0 °F 30.08 in SE 6.0 mph 6.0 mph 45% 0.00 in 779.0 W/m2
14:07 41.5 °F 21.7 °F 30.08 in South 3.5 mph 3.6 mph 45% 0.00 in 691.0 W/m2
14:37 42.3 °F 21.9 °F 30.08 in ENE 5.8 mph 5.8 mph 44% 0.00 in 638.0 W/m2
14:42 42.5 °F 20.4 °F 30.08 in SE 4.6 mph 4.6 mph 41% 0.00 in 744.0 W/m2
14:47 42.6 °F 21.6 °F 30.08 in South 10.4 mph 10.4 mph 43% 0.00 in 541.0 W/m2
14:52 42.3 °F 20.8 °F 30.08 in South 4.6 mph 4.6 mph 42% 0.00 in 566.0 W/m2
14:57 42.4 °F 21.5 °F 30.08 in SE 3.5 mph 3.5 mph 43% 0.00 in 772.0 W/m2
15:02 42.3 °F 20.2 °F 30.08 in WSW 3.5 mph 3.5 mph 41% 0.00 in 636.0 W/m2
15:07 42.2 °F 21.3 °F 30.08 in Calm     43% 0.00 in 434.0 W/m2
15:12 42.2 °F 20.2 °F 30.08 in South 5.8 mph 5.8 mph 41% 0.00 in 387.0 W/m2
15:17 41.9 °F 19.9 °F 30.07 in SSW 3.5 mph 3.5 mph 41% 0.00 in 443.0 W/m2
15:22 41.9 °F 20.4 °F 30.07 in SW 2.0 mph 2.0 mph 42% 0.00 in 422.0 W/m2
15:27 42.0 °F 21.1 °F 30.07 in SSW 5.8 mph 5.8 mph 43% 0.00 in 420.0 W/m2
15:32 41.7 °F 19.7 °F 30.07 in Calm     41% 0.00 in 378.0 W/m2
15:37 41.7 °F 19.1 °F 30.06 in SE 5.8 mph 5.8 mph 40% 0.00 in 499.0 W/m2
15:42 41.9 °F 19.9 °F 30.07 in SSE 2.3 mph   41% 0.00 in 397.0 W/m2
15:47 41.9 °F 19.3 °F 30.07 in Calm     40% 0.00 in 475.0 W/m2
15:52 41.8 °F 20.4 °F 30.07 in South 4.6 mph 4.6 mph 42% 0.00 in 380.0 W/m2
15:57 41.9 °F 20.4 °F 30.06 in SE 7.0 mph 7.0 mph 42% 0.00 in 394.0 W/m2
16:02 41.9 °F 19.9 °F 30.06 in SSE 5.8 mph 5.8 mph 41% 0.00 in 367.0 W/m2
16:07 42.0 °F 20.0 °F 30.06 in ESE 2.3 mph   41% 0.00 in 473.0 W/m2
16:12 42.0 °F 20.5 °F 30.06 in SSE 3.5 mph 3.5 mph 42% 0.00 in 452.0 W/m2
16:17 41.9 °F 19.9 °F 30.06 in Calm     41% 0.00 in 362.0 W/m2
16:22 42.0 °F 20.0 °F 30.06 in SE 9.2 mph 9.2 mph 41% 0.00 in 362.0 W/m2
16:27 41.9 °F 19.9 °F 30.06 in SSW 3.5 mph 3.5 mph 41% 0.00 in 441.0 W/m2
16:32 42.1 °F 20.6 °F 30.06 in ESE 8.0 mph 8.0 mph 42% 0.00 in 561.0 W/m2
16:37 42.6 °F 19.3 °F 30.06 in ESE 4.6 mph 4.6 mph 39% 0.00 in 459.0 W/m2
16:42 42.6 °F 19.3 °F 30.06 in South 2.0 mph 2.0 mph 39% 0.00 in 415.0 W/m2
16:47 42.7 °F 21.2 °F 30.06 in SE 4.0 mph 4.0 mph 42% 0.00 in 411.0 W/m2
16:52 42.6 °F 19.9 °F 30.06 in SSE 8.1 mph 8.1 mph 40% 0.00 in 452.0 W/m2
16:57 42.6 °F 19.9 °F 30.06 in SE 4.6 mph 4.6 mph 40% 0.00 in 387.0 W/m2
17:02 42.4 °F 19.2 °F 30.06 in SSE 3.5 mph 3.5 mph 39% 0.00 in 345.0 W/m2
17:07 42.0 °F 18.8 °F 30.06 in East 4.6 mph 4.6 mph 39% 0.00 in 292.0 W/m2
17:12 41.8 °F 19.2 °F 30.06 in ESE 5.8 mph 5.8 mph 40% 0.00 in 221.0 W/m2
17:17 41.4 °F 18.9 °F 30.05 in East 1.0 mph   40% 0.00 in 244.0 W/m2
17:22 41.3 °F 20.5 °F 30.05 in ESE 6.9 mph 6.9 mph 43% 0.00 in 183.0 W/m2
17:27 40.9 °F 19.5 °F 30.05 in SE 7.0 mph 7.0 mph 42% 0.00 in 130.0 W/m2
17:32 40.6 °F 19.8 °F 30.05 in SSE 4.6 mph 4.6 mph 43% 0.00 in 134.0 W/m2
17:37 40.4 °F 19.6 °F 30.05 in Calm     43% 0.00 in 123.0 W/m2
17:42 40.5 °F 20.8 °F 30.05 in ESE 4.0 mph 4.0 mph 45% 0.00 in 135.0 W/m2
17:47 40.5 °F 19.7 °F 30.05 in SE 8.1 mph 8.1 mph 43% 0.00 in 121.0 W/m2
17:52 40.4 °F 20.7 °F 30.05 in SSE 5.0 mph 5.0 mph 45% 0.00 in 100.0 W/m2
17:57 40.5 °F 20.3 °F 30.05 in SSE 3.5 mph 3.5 mph 44% 0.00 in 86.0 W/m2
18:02 40.4 °F 20.2 °F 30.05 in SE 3.5 mph 3.5 mph 44% 0.00 in 60.0 W/m2
18:07 40.2 °F 18.9 °F 30.05 in Calm     42% 0.00 in 42.0 W/m2
18:12 40.1 °F 19.9 °F 30.05 in SE 3.5 mph 3.5 mph 44% 0.00 in 35.0 W/m2
18:18 39.9 °F 19.2 °F 30.05 in Calm     43% 0.00 in 35.0 W/m2
18:23 39.7 °F 19.5 °F 30.05 in Calm     44% 0.00 in 35.0 W/m2
18:28 39.6 °F 19.5 °F 30.05 in Calm     44% 0.00 in 40.0 W/m2
18:33 39.6 °F 20.0 °F 30.05 in ESE 3.5 mph 3.5 mph 45% 0.00 in 40.0 W/m2
18:38 39.5 °F 20.4 °F 30.05 in ESE 1.2 mph   46% 0.00 in 23.0 W/m2
18:43 39.5 °F 20.4 °F 30.05 in Calm     46% 0.00 in 16.0 W/m2
18:48 39.3 °F 20.7 °F 30.04 in East 4.6 mph 4.6 mph 47% 0.00 in 14.0 W/m2
18:53 39.2 °F 20.1 °F 30.04 in Calm     46% 0.00 in 14.0 W/m2
18:58 39.1 °F 20.5 °F 30.04 in Calm     47% 0.00 in 12.0 W/m2
19:03 39.0 °F 20.9 °F 30.04 in Calm     48% 0.00 in 9.0 W/m2
19:08 38.8 °F 21.7 °F 30.03 in Calm     50% 0.00 in 5.0 W/m2
19:13 38.5 °F 22.4 °F 30.03 in Calm     52% 0.00 in 0.0 W/m2
19:18 38.3 °F 22.2 °F 30.03 in Calm     52% 0.00 in 0.0 W/m2
19:23 38.0 °F 22.4 °F 30.03 in Calm     53% 0.00 in 0.0 W/m2
19:28 37.8 °F 22.2 °F 30.03 in Calm     53% 0.00 in 0.0 W/m2
19:33 37.7 °F 22.5 °F 30.03 in Calm     54% 0.00 in 0.0 W/m2
19:38 37.5 °F 22.8 °F 30.03 in Calm     55% 0.00 in 0.0 W/m2
19:43 37.3 °F 23.0 °F 30.03 in Calm     56% 0.00 in 0.0 W/m2
19:48 37.1 °F 22.8 °F 30.02 in Calm     56% 0.00 in 0.0 W/m2
19:53 37.1 °F 22.8 °F 30.03 in Calm     56% 0.00 in 0.0 W/m2
19:58 37.0 °F 22.7 °F 30.03 in Calm     56% 0.00 in 0.0 W/m2
20:03 37.0 °F 22.7 °F 30.03 in Calm     56% 0.00 in 0.0 W/m2
20:08 36.9 °F 23.1 °F 30.03 in Calm     57% 0.00 in 0.0 W/m2
20:13 36.8 °F 23.4 °F 30.03 in Calm     58% 0.00 in 0.0 W/m2
20:18 36.7 °F 23.3 °F 30.03 in Calm     58% 0.00 in 0.0 W/m2
20:23 36.7 °F 23.3 °F 30.04 in Calm     58% 0.00 in 0.0 W/m2
20:28 36.7 °F 23.3 °F 30.04 in East 2.3 mph   58% 0.00 in 0.0 W/m2
20:33 36.6 °F 23.2 °F 30.04 in Calm     58% 0.00 in 0.0 W/m2
20:38 36.6 °F 23.2 °F 30.05 in Calm     58% 0.00 in 0.0 W/m2
20:43 36.6 °F 23.2 °F 30.05 in Calm     58% 0.00 in 0.0 W/m2
20:48 36.6 °F 23.2 °F 30.06 in Calm     58% 0.00 in 0.0 W/m2
20:53 36.5 °F 23.1 °F 30.05 in Calm     58% 0.00 in 0.0 W/m2
20:58 36.5 °F 23.5 °F 30.06 in Calm     59% 0.00 in 0.0 W/m2
21:03 36.5 °F 23.1 °F 30.06 in Calm     58% 0.00 in 0.0 W/m2
21:08 36.5 °F 23.5 °F 30.06 in Calm     59% 0.00 in 0.0 W/m2
21:13 36.5 °F 23.5 °F 30.06 in Calm     59% 0.00 in 0.0 W/m2
21:18 36.6 °F 23.6 °F 30.06 in East 3.5 mph 3.5 mph 59% 0.00 in 0.0 W/m2
21:23 37.0 °F 22.7 °F 30.07 in Calm     56% 0.00 in 0.0 W/m2
21:28 37.0 °F 23.6 °F 30.07 in Calm     58% 0.00 in 0.0 W/m2
21:33 37.0 °F 23.2 °F 30.07 in East 5.8 mph 5.8 mph 57% 0.00 in 0.0 W/m2
21:38 37.1 °F 24.1 °F 30.07 in SE 3.5 mph 3.5 mph 59% 0.00 in 0.0 W/m2
21:43 36.8 °F 25.4 °F 30.08 in ESE 5.8 mph 5.8 mph 63% 0.00 in 0.0 W/m2
21:48 36.4 °F 25.4 °F 30.08 in SE 5.0 mph 5.0 mph 64% 0.00 in 0.0 W/m2
21:53 36.0 °F 25.7 °F 30.08 in Calm     66% 0.00 in 0.0 W/m2
21:58 35.9 °F 25.6 °F 30.09 in SSE 2.3 mph   66% 0.00 in 0.0 W/m2
22:03 35.8 °F 25.9 °F 30.09 in ESE 3.5 mph 3.5 mph 67% 0.00 in 0.0 W/m2
22:08 35.7 °F 26.2 °F 30.09 in SE 3.5 mph 3.5 mph 68% 0.00 in 0.0 W/m2
22:13 35.6 °F 26.4 °F 30.09 in Calm     69% 0.00 in 0.0 W/m2
22:18 35.5 °F 26.3 °F 30.09 in Calm     69% 0.00 in 0.0 W/m2
22:23 35.2 °F 26.7 °F 30.10 in SSE 9.0 mph 9.0 mph 71% 0.00 in 0.0 W/m2
22:28 34.8 °F 27.4 °F 30.10 in Calm     74% 0.00 in 0.0 W/m2
22:33 34.6 °F 27.5 °F 30.10 in Calm     75% 0.00 in 0.0 W/m2
22:38 34.3 °F 27.8 °F 30.10 in South 3.5 mph 3.5 mph 77% 0.00 in 0.0 W/m2
22:43 34.1 °F 28.0 °F 30.10 in Calm     78% 0.00 in 0.0 W/m2
22:48 33.8 °F 28.0 °F 30.10 in Calm     79% 0.00 in 0.0 W/m2
22:53 33.5 °F 28.3 °F 30.10 in Calm     81% 0.00 in 0.0 W/m2
22:58 33.2 °F 28.3 °F 30.10 in Calm     82% 0.00 in 0.0 W/m2
23:03 32.9 °F 28.6 °F 30.10 in Calm     84% 0.00 in 0.0 W/m2
23:08 32.7 °F 28.7 °F 30.10 in Calm     85% 0.00 in 0.0 W/m2
23:13 32.5 °F 28.8 °F 30.10 in Calm     86% 0.00 in 0.0 W/m2
23:18 32.4 °F 29.0 °F 30.10 in Calm     87% 0.00 in 0.0 W/m2
23:23 32.3 °F 28.9 °F 30.11 in Calm     87% 0.00 in 0.0 W/m2
23:28 32.1 °F 28.9 °F 30.11 in Calm     88% 0.00 in 0.0 W/m2
23:33 31.9 °F 29.0 °F 30.11 in Calm     89% 0.00 in 0.0 W/m2
23:38 31.8 °F 29.2 °F 30.10 in Calm     90% 0.00 in 0.0 W/m2
23:43 31.7 °F 29.1 °F 30.10 in Calm     90% 0.00 in 0.0 W/m2
23:48 31.7 °F 29.4 °F 30.10 in Calm     91% 0.00 in 0.0 W/m2
23:53 31.6 °F 29.3 °F 30.10 in Calm     91% 0.00 in 0.0 W/m2
23:58 31.5 °F 29.2 °F 30.10 in Calm     91% 0.00 in 0.0 W/m2
Bourbonnais, Illinois, USA
Compliments of Weather Underground - 2 mb